sensor_id;sensor_type;location;lat;lon;timestamp;temperature;humidity
53752;DHT22;41095;53.090;6.692;2022-11-09T00:02:22;12.60;99.90
53752;DHT22;41095;53.090;6.692;2022-11-09T00:04:48;12.60;99.90
53752;DHT22;41095;53.090;6.692;2022-11-09T00:07:14;12.50;99.90
53752;DHT22;41095;53.090;6.692;2022-11-09T00:09:40;12.60;99.90
53752;DHT22;41095;53.090;6.692;2022-11-09T00:12:06;12.60;99.90
53752;DHT22;41095;53.090;6.692;2022-11-09T00:14:33;12.60;99.90
53752;DHT22;41095;53.090;6.692;2022-11-09T00:16:59;12.60;99.90
53752;DHT22;41095;53.090;6.692;2022-11-09T00:19:25;12.60;99.90
53752;DHT22;41095;53.090;6.692;2022-11-09T00:21:50;12.60;99.90
53752;DHT22;41095;53.090;6.692;2022-11-09T00:24:16;12.60;99.90
53752;DHT22;41095;53.090;6.692;2022-11-09T00:26:42;12.60;99.90
53752;DHT22;41095;53.090;6.692;2022-11-09T00:29:08;12.60;99.90
53752;DHT22;41095;53.090;6.692;2022-11-09T00:31:33;12.70;99.90
53752;DHT22;41095;53.090;6.692;2022-11-09T00:33:59;12.70;99.90
53752;DHT22;41095;53.090;6.692;2022-11-09T00:36:27;12.60;99.90
53752;DHT22;41095;53.090;6.692;2022-11-09T00:38:55;12.60;99.90
53752;DHT22;41095;53.090;6.692;2022-11-09T00:41:22;12.50;99.90
53752;DHT22;41095;53.090;6.692;2022-11-09T00:43:48;12.50;99.90
53752;DHT22;41095;53.090;6.692;2022-11-09T00:46:15;12.40;99.90
53752;DHT22;41095;53.090;6.692;2022-11-09T00:48:40;12.40;99.90
53752;DHT22;41095;53.090;6.692;2022-11-09T00:51:06;12.30;99.90
53752;DHT22;41095;53.090;6.692;2022-11-09T00:53:33;12.30;99.90
53752;DHT22;41095;53.090;6.692;2022-11-09T00:56:04;12.30;99.90
53752;DHT22;41095;53.090;6.692;2022-11-09T00:58:32;12.20;99.90
53752;DHT22;41095;53.090;6.692;2022-11-09T01:01:01;12.20;99.90
53752;DHT22;41095;53.090;6.692;2022-11-09T01:03:29;12.20;99.90
53752;DHT22;41095;53.090;6.692;2022-11-09T01:05:58;12.20;99.90
53752;DHT22;41095;53.090;6.692;2022-11-09T01:08:24;12.30;99.90
53752;DHT22;41095;53.090;6.692;2022-11-09T01:10:49;12.20;99.90
53752;DHT22;41095;53.090;6.692;2022-11-09T01:13:16;12.20;99.90
53752;DHT22;41095;53.090;6.692;2022-11-09T01:15:49;12.20;99.90
53752;DHT22;41095;53.090;6.692;2022-11-09T01:18:16;12.30;99.90
53752;DHT22;41095;53.090;6.692;2022-11-09T01:20:44;12.30;99.90
53752;DHT22;41095;53.090;6.692;2022-11-09T01:23:11;12.30;99.90
53752;DHT22;41095;53.090;6.692;2022-11-09T01:25:38;12.30;99.90
53752;DHT22;41095;53.090;6.692;2022-11-09T01:28:05;12.30;99.90
53752;DHT22;41095;53.090;6.692;2022-11-09T01:30:39;12.30;99.90
53752;DHT22;41095;53.090;6.692;2022-11-09T01:33:08;12.30;99.90
53752;DHT22;41095;53.090;6.692;2022-11-09T01:35:35;12.20;99.90
53752;DHT22;41095;53.090;6.692;2022-11-09T01:38:02;12.30;99.90
53752;DHT22;41095;53.090;6.692;2022-11-09T01:40:29;12.20;99.90
53752;DHT22;41095;53.090;6.692;2022-11-09T01:42:56;12.20;99.90
53752;DHT22;41095;53.090;6.692;2022-11-09T01:45:29;12.20;99.90
53752;DHT22;41095;53.090;6.692;2022-11-09T01:48:10;12.20;99.90
53752;DHT22;41095;53.090;6.692;2022-11-09T01:50:52;12.20;99.90
53752;DHT22;41095;53.090;6.692;2022-11-09T01:53:22;12.20;99.90
53752;DHT22;41095;53.090;6.692;2022-11-09T01:55:52;12.20;99.90
53752;DHT22;41095;53.090;6.692;2022-11-09T01:58:33;12.20;99.90
53752;DHT22;41095;53.090;6.692;2022-11-09T02:01:02;12.20;99.90
53752;DHT22;41095;53.090;6.692;2022-11-09T02:03:38;12.20;99.90
53752;DHT22;41095;53.090;6.692;2022-11-09T02:06:08;12.20;99.90
53752;DHT22;41095;53.090;6.692;2022-11-09T02:08:34;12.20;99.90
53752;DHT22;41095;53.090;6.692;2022-11-09T02:11:11;12.20;99.90
53752;DHT22;41095;53.090;6.692;2022-11-09T02:13:40;12.20;99.90
53752;DHT22;41095;53.090;6.692;2022-11-09T02:16:08;12.20;99.90
53752;DHT22;41095;53.090;6.692;2022-11-09T02:18:35;12.20;99.90
53752;DHT22;41095;53.090;6.692;2022-11-09T02:21:03;12.10;99.90
53752;DHT22;41095;53.090;6.692;2022-11-09T02:23:29;12.10;99.90
53752;DHT22;41095;53.090;6.692;2022-11-09T02:26:06;12.10;99.90
53752;DHT22;41095;53.090;6.692;2022-11-09T02:28:35;12.00;99.90
53752;DHT22;41095;53.090;6.692;2022-11-09T02:31:01;12.00;99.90
53752;DHT22;41095;53.090;6.692;2022-11-09T02:33:29;12.00;99.90
53752;DHT22;41095;53.090;6.692;2022-11-09T02:36:04;12.00;99.90
53752;DHT22;41095;53.090;6.692;2022-11-09T02:38:30;12.00;99.90
53752;DHT22;41095;53.090;6.692;2022-11-09T02:40:55;12.00;99.90
53752;DHT22;41095;53.090;6.692;2022-11-09T02:43:21;11.90;99.90
53752;DHT22;41095;53.090;6.692;2022-11-09T02:45:47;12.00;99.90
53752;DHT22;41095;53.090;6.692;2022-11-09T02:48:13;11.90;99.90
53752;DHT22;41095;53.090;6.692;2022-11-09T02:50:38;11.90;99.90
53752;DHT22;41095;53.090;6.692;2022-11-09T02:53:04;12.00;99.90
53752;DHT22;41095;53.090;6.692;2022-11-09T02:55:30;12.00;99.90
53752;DHT22;41095;53.090;6.692;2022-11-09T02:57:55;11.90;99.90
53752;DHT22;41095;53.090;6.692;2022-11-09T03:00:21;11.90;99.90
53752;DHT22;41095;53.090;6.692;2022-11-09T03:02:47;11.90;99.90
53752;DHT22;41095;53.090;6.692;2022-11-09T03:05:13;11.90;99.90
53752;DHT22;41095;53.090;6.692;2022-11-09T03:07:39;11.90;99.90
53752;DHT22;41095;53.090;6.692;2022-11-09T03:10:05;11.90;99.90
53752;DHT22;41095;53.090;6.692;2022-11-09T03:12:30;11.90;99.90
53752;DHT22;41095;53.090;6.692;2022-11-09T03:14:58;11.90;99.90
53752;DHT22;41095;53.090;6.692;2022-11-09T03:17:25;11.90;99.90
53752;DHT22;41095;53.090;6.692;2022-11-09T03:19:51;11.90;99.90
53752;DHT22;41095;53.090;6.692;2022-11-09T03:22:16;11.90;99.90
53752;DHT22;41095;53.090;6.692;2022-11-09T03:24:42;11.90;99.90
53752;DHT22;41095;53.090;6.692;2022-11-09T03:27:08;11.90;99.90
53752;DHT22;41095;53.090;6.692;2022-11-09T03:29:34;11.90;99.90
53752;DHT22;41095;53.090;6.692;2022-11-09T03:31:59;11.90;99.90
53752;DHT22;41095;53.090;6.692;2022-11-09T03:34:25;11.90;99.90
53752;DHT22;41095;53.090;6.692;2022-11-09T03:36:51;11.90;99.90
53752;DHT22;41095;53.090;6.692;2022-11-09T03:39:16;11.90;99.90
53752;DHT22;41095;53.090;6.692;2022-11-09T03:41:42;11.90;99.90
53752;DHT22;41095;53.090;6.692;2022-11-09T03:44:08;11.90;99.90
53752;DHT22;41095;53.090;6.692;2022-11-09T03:46:33;11.90;99.90
53752;DHT22;41095;53.090;6.692;2022-11-09T03:48:59;11.90;99.90
53752;DHT22;41095;53.090;6.692;2022-11-09T03:51:24;11.90;99.90
53752;DHT22;41095;53.090;6.692;2022-11-09T03:53:50;11.90;99.90
53752;DHT22;41095;53.090;6.692;2022-11-09T03:56:16;11.90;99.90
53752;DHT22;41095;53.090;6.692;2022-11-09T03:58:42;11.90;99.90
53752;DHT22;41095;53.090;6.692;2022-11-09T04:01:07;11.80;99.90
53752;DHT22;41095;53.090;6.692;2022-11-09T04:03:33;11.90;99.90
53752;DHT22;41095;53.090;6.692;2022-11-09T04:05:59;11.80;99.90
53752;DHT22;41095;53.090;6.692;2022-11-09T04:08:24;11.80;99.90
53752;DHT22;41095;53.090;6.692;2022-11-09T04:10:50;11.80;99.90
53752;DHT22;41095;53.090;6.692;2022-11-09T04:13:16;11.80;99.90
53752;DHT22;41095;53.090;6.692;2022-11-09T04:15:42;11.80;99.90
53752;DHT22;41095;53.090;6.692;2022-11-09T04:18:14;11.80;99.90
53752;DHT22;41095;53.090;6.692;2022-11-09T04:20:40;11.70;99.90
53752;DHT22;41095;53.090;6.692;2022-11-09T04:23:07;11.70;99.90
53752;DHT22;41095;53.090;6.692;2022-11-09T04:25:35;11.70;99.90
53752;DHT22;41095;53.090;6.692;2022-11-09T04:28:03;11.70;99.90
53752;DHT22;41095;53.090;6.692;2022-11-09T04:30:31;11.60;99.90
53752;DHT22;41095;53.090;6.692;2022-11-09T04:32:58;11.60;99.90
53752;DHT22;41095;53.090;6.692;2022-11-09T04:35:25;11.60;99.90
53752;DHT22;41095;53.090;6.692;2022-11-09T04:37:56;11.60;99.90
53752;DHT22;41095;53.090;6.692;2022-11-09T04:40:23;11.60;99.90
53752;DHT22;41095;53.090;6.692;2022-11-09T04:42:49;11.60;99.90
53752;DHT22;41095;53.090;6.692;2022-11-09T04:45:15;11.60;99.90
53752;DHT22;41095;53.090;6.692;2022-11-09T04:47:40;11.60;99.90
53752;DHT22;41095;53.090;6.692;2022-11-09T04:50:06;11.60;99.90
53752;DHT22;41095;53.090;6.692;2022-11-09T04:52:32;11.60;99.90
53752;DHT22;41095;53.090;6.692;2022-11-09T04:54:58;11.70;99.90
53752;DHT22;41095;53.090;6.692;2022-11-09T04:57:23;11.70;99.90
53752;DHT22;41095;53.090;6.692;2022-11-09T04:59:49;11.70;99.90
53752;DHT22;41095;53.090;6.692;2022-11-09T05:02:15;11.80;99.90
53752;DHT22;41095;53.090;6.692;2022-11-09T05:04:41;11.80;99.90
53752;DHT22;41095;53.090;6.692;2022-11-09T05:07:06;11.80;99.90
53752;DHT22;41095;53.090;6.692;2022-11-09T05:09:32;11.90;99.90
53752;DHT22;41095;53.090;6.692;2022-11-09T05:11:57;12.00;99.90
53752;DHT22;41095;53.090;6.692;2022-11-09T05:14:23;12.00;99.90
53752;DHT22;41095;53.090;6.692;2022-11-09T05:16:49;12.00;99.90
53752;DHT22;41095;53.090;6.692;2022-11-09T05:19:14;12.00;99.90
53752;DHT22;41095;53.090;6.692;2022-11-09T05:21:40;12.00;99.90
53752;DHT22;41095;53.090;6.692;2022-11-09T05:24:06;12.00;99.90
53752;DHT22;41095;53.090;6.692;2022-11-09T05:26:34;12.00;99.90
53752;DHT22;41095;53.090;6.692;2022-11-09T05:29:02;12.10;99.90
53752;DHT22;41095;53.090;6.692;2022-11-09T05:31:28;12.10;99.90
53752;DHT22;41095;53.090;6.692;2022-11-09T05:33:55;12.10;99.90
53752;DHT22;41095;53.090;6.692;2022-11-09T05:36:21;12.20;99.90
53752;DHT22;41095;53.090;6.692;2022-11-09T05:38:47;12.20;99.90
53752;DHT22;41095;53.090;6.692;2022-11-09T05:41:13;12.30;99.90
53752;DHT22;41095;53.090;6.692;2022-11-09T05:43:39;12.30;99.90
53752;DHT22;41095;53.090;6.692;2022-11-09T05:46:05;12.30;99.90
53752;DHT22;41095;53.090;6.692;2022-11-09T05:48:31;12.20;99.90
53752;DHT22;41095;53.090;6.692;2022-11-09T05:51:00;12.10;99.90
53752;DHT22;41095;53.090;6.692;2022-11-09T05:53:26;12.20;99.90
53752;DHT22;41095;53.090;6.692;2022-11-09T05:55:52;12.10;99.90
53752;DHT22;41095;53.090;6.692;2022-11-09T05:58:18;12.10;99.90
53752;DHT22;41095;53.090;6.692;2022-11-09T06:00:43;12.10;99.90
53752;DHT22;41095;53.090;6.692;2022-11-09T06:03:10;12.00;99.90
53752;DHT22;41095;53.090;6.692;2022-11-09T06:05:37;12.20;99.90
53752;DHT22;41095;53.090;6.692;2022-11-09T06:08:05;12.00;99.90
53752;DHT22;41095;53.090;6.692;2022-11-09T06:10:32;12.00;99.90
53752;DHT22;41095;53.090;6.692;2022-11-09T06:12:57;12.00;99.90
53752;DHT22;41095;53.090;6.692;2022-11-09T06:15:23;11.90;99.90
53752;DHT22;41095;53.090;6.692;2022-11-09T06:17:56;11.90;99.90
53752;DHT22;41095;53.090;6.692;2022-11-09T06:20:23;11.90;99.90
53752;DHT22;41095;53.090;6.692;2022-11-09T06:23:03;11.90;99.90
53752;DHT22;41095;53.090;6.692;2022-11-09T06:25:29;11.80;99.90
53752;DHT22;41095;53.090;6.692;2022-11-09T06:27:56;11.80;99.90
53752;DHT22;41095;53.090;6.692;2022-11-09T06:30:22;11.80;99.90
53752;DHT22;41095;53.090;6.692;2022-11-09T06:32:48;11.80;99.90
53752;DHT22;41095;53.090;6.692;2022-11-09T06:35:14;11.70;99.90
53752;DHT22;41095;53.090;6.692;2022-11-09T06:37:40;11.60;99.90
53752;DHT22;41095;53.090;6.692;2022-11-09T06:40:06;11.70;99.90
53752;DHT22;41095;53.090;6.692;2022-11-09T06:42:32;11.70;99.90
53752;DHT22;41095;53.090;6.692;2022-11-09T06:44:58;11.70;99.90
53752;DHT22;41095;53.090;6.692;2022-11-09T06:47:24;11.60;99.90
53752;DHT22;41095;53.090;6.692;2022-11-09T06:49:49;11.70;99.90
53752;DHT22;41095;53.090;6.692;2022-11-09T06:52:15;11.70;99.90
53752;DHT22;41095;53.090;6.692;2022-11-09T06:54:41;11.60;99.90
53752;DHT22;41095;53.090;6.692;2022-11-09T06:57:06;11.70;99.90
53752;DHT22;41095;53.090;6.692;2022-11-09T06:59:33;11.70;99.90
53752;DHT22;41095;53.090;6.692;2022-11-09T07:01:59;11.70;99.90
53752;DHT22;41095;53.090;6.692;2022-11-09T07:04:24;11.70;99.90
53752;DHT22;41095;53.090;6.692;2022-11-09T07:06:50;11.70;99.90
53752;DHT22;41095;53.090;6.692;2022-11-09T07:09:15;11.70;99.90
53752;DHT22;41095;53.090;6.692;2022-11-09T07:11:41;11.70;99.90
53752;DHT22;41095;53.090;6.692;2022-11-09T07:14:07;11.80;99.90
53752;DHT22;41095;53.090;6.692;2022-11-09T07:16:33;11.80;99.90
53752;DHT22;41095;53.090;6.692;2022-11-09T07:18:58;11.80;99.90
53752;DHT22;41095;53.090;6.692;2022-11-09T07:21:24;11.80;99.90
53752;DHT22;41095;53.090;6.692;2022-11-09T07:23:51;11.80;99.90
53752;DHT22;41095;53.090;6.692;2022-11-09T07:26:16;11.70;99.90
53752;DHT22;41095;53.090;6.692;2022-11-09T07:28:42;11.70;99.90
53752;DHT22;41095;53.090;6.692;2022-11-09T07:31:08;11.80;99.90
53752;DHT22;41095;53.090;6.692;2022-11-09T07:33:34;11.80;99.90
53752;DHT22;41095;53.090;6.692;2022-11-09T07:36:02;11.80;99.90
53752;DHT22;41095;53.090;6.692;2022-11-09T07:38:28;11.80;99.90
53752;DHT22;41095;53.090;6.692;2022-11-09T07:40:57;11.80;99.90
53752;DHT22;41095;53.090;6.692;2022-11-09T07:43:24;11.80;99.90
53752;DHT22;41095;53.090;6.692;2022-11-09T07:45:50;11.80;99.90
53752;DHT22;41095;53.090;6.692;2022-11-09T07:48:16;11.80;99.90
53752;DHT22;41095;53.090;6.692;2022-11-09T07:50:42;11.80;99.90
53752;DHT22;41095;53.090;6.692;2022-11-09T07:53:10;11.90;99.90
53752;DHT22;41095;53.090;6.692;2022-11-09T07:55:37;11.90;99.90
53752;DHT22;41095;53.090;6.692;2022-11-09T07:58:12;11.90;99.90
53752;DHT22;41095;53.090;6.692;2022-11-09T08:00:39;11.90;99.90
53752;DHT22;41095;53.090;6.692;2022-11-09T08:03:05;12.00;99.90
53752;DHT22;41095;53.090;6.692;2022-11-09T08:05:32;12.00;99.90
53752;DHT22;41095;53.090;6.692;2022-11-09T08:08:00;12.00;99.90
53752;DHT22;41095;53.090;6.692;2022-11-09T08:10:28;12.00;99.90
53752;DHT22;41095;53.090;6.692;2022-11-09T08:13:01;12.10;99.90
53752;DHT22;41095;53.090;6.692;2022-11-09T08:15:27;12.10;99.90
53752;DHT22;41095;53.090;6.692;2022-11-09T08:17:53;12.20;99.90
53752;DHT22;41095;53.090;6.692;2022-11-09T08:20:22;12.30;99.90
53752;DHT22;41095;53.090;6.692;2022-11-09T08:22:48;12.30;99.90
53752;DHT22;41095;53.090;6.692;2022-11-09T08:25:14;12.30;99.90
53752;DHT22;41095;53.090;6.692;2022-11-09T08:27:40;12.40;99.90
53752;DHT22;41095;53.090;6.692;2022-11-09T08:30:11;12.40;99.90
53752;DHT22;41095;53.090;6.692;2022-11-09T08:32:38;12.50;99.90
53752;DHT22;41095;53.090;6.692;2022-11-09T08:35:04;12.50;99.90
53752;DHT22;41095;53.090;6.692;2022-11-09T08:37:32;12.50;99.90
53752;DHT22;41095;53.090;6.692;2022-11-09T08:39:58;12.60;99.90
53752;DHT22;41095;53.090;6.692;2022-11-09T08:42:24;12.60;99.90
53752;DHT22;41095;53.090;6.692;2022-11-09T08:44:49;12.60;99.90
53752;DHT22;41095;53.090;6.692;2022-11-09T08:47:15;12.70;99.90
53752;DHT22;41095;53.090;6.692;2022-11-09T08:49:41;12.70;99.90
53752;DHT22;41095;53.090;6.692;2022-11-09T08:52:08;12.70;99.90
53752;DHT22;41095;53.090;6.692;2022-11-09T08:54:35;12.70;99.90
53752;DHT22;41095;53.090;6.692;2022-11-09T08:57:01;12.80;99.90
53752;DHT22;41095;53.090;6.692;2022-11-09T08:59:26;12.80;99.90
53752;DHT22;41095;53.090;6.692;2022-11-09T09:01:52;12.80;99.90
53752;DHT22;41095;53.090;6.692;2022-11-09T09:04:18;12.90;99.90
53752;DHT22;41095;53.090;6.692;2022-11-09T09:06:44;12.90;99.90
53752;DHT22;41095;53.090;6.692;2022-11-09T09:09:09;13.00;99.90
53752;DHT22;41095;53.090;6.692;2022-11-09T09:11:35;13.00;99.90
53752;DHT22;41095;53.090;6.692;2022-11-09T09:14:01;13.10;99.90
53752;DHT22;41095;53.090;6.692;2022-11-09T09:16:27;13.10;99.90
53752;DHT22;41095;53.090;6.692;2022-11-09T09:18:53;13.20;99.90
53752;DHT22;41095;53.090;6.692;2022-11-09T09:21:19;13.20;99.90
53752;DHT22;41095;53.090;6.692;2022-11-09T09:23:47;13.30;99.90
53752;DHT22;41095;53.090;6.692;2022-11-09T09:26:14;13.30;99.90
53752;DHT22;41095;53.090;6.692;2022-11-09T09:28:39;13.40;99.90
53752;DHT22;41095;53.090;6.692;2022-11-09T09:31:05;13.50;99.90
53752;DHT22;41095;53.090;6.692;2022-11-09T09:33:31;13.50;99.90
53752;DHT22;41095;53.090;6.692;2022-11-09T09:35:58;13.60;99.90
53752;DHT22;41095;53.090;6.692;2022-11-09T09:38:25;13.60;99.90
53752;DHT22;41095;53.090;6.692;2022-11-09T09:41:00;13.60;99.90
53752;DHT22;41095;53.090;6.692;2022-11-09T09:43:40;13.60;99.90
53752;DHT22;41095;53.090;6.692;2022-11-09T09:46:16;13.60;99.90
53752;DHT22;41095;53.090;6.692;2022-11-09T09:48:57;13.70;99.90
53752;DHT22;41095;53.090;6.692;2022-11-09T09:51:34;13.80;99.90
53752;DHT22;41095;53.090;6.692;2022-11-09T09:54:11;13.80;99.90
53752;DHT22;41095;53.090;6.692;2022-11-09T09:56:40;13.80;99.90
53752;DHT22;41095;53.090;6.692;2022-11-09T10:01:49;14.00;99.90
53752;DHT22;41095;53.090;6.692;2022-11-09T10:04:21;14.00;99.90
53752;DHT22;41095;53.090;6.692;2022-11-09T10:07:09;14.00;99.90
53752;DHT22;41095;53.090;6.692;2022-11-09T10:10:15;14.00;99.90
53752;DHT22;41095;53.090;6.692;2022-11-09T10:15:30;14.10;99.90
53752;DHT22;41095;53.090;6.692;2022-11-09T10:26:22;14.20;99.90
53752;DHT22;41095;53.090;6.692;2022-11-09T10:28:57;14.40;99.90
53752;DHT22;41095;53.090;6.692;2022-11-09T10:31:24;14.40;99.90
53752;DHT22;41095;53.090;6.692;2022-11-09T10:33:58;14.40;99.90
53752;DHT22;41095;53.090;6.692;2022-11-09T10:36:43;14.40;99.90
53752;DHT22;41095;53.090;6.692;2022-11-09T10:39:12;14.50;99.90
53752;DHT22;41095;53.090;6.692;2022-11-09T10:41:41;14.50;99.90
53752;DHT22;41095;53.090;6.692;2022-11-09T10:44:16;14.60;99.90
53752;DHT22;41095;53.090;6.692;2022-11-09T10:49:26;14.70;99.90
53752;DHT22;41095;53.090;6.692;2022-11-09T10:51:52;14.80;99.90
53752;DHT22;41095;53.090;6.692;2022-11-09T10:54:21;14.80;99.90
53752;DHT22;41095;53.090;6.692;2022-11-09T10:57:11;14.90;99.90
53752;DHT22;41095;53.090;6.692;2022-11-09T10:59:43;14.80;99.90
53752;DHT22;41095;53.090;6.692;2022-11-09T11:02:43;14.80;99.90
53752;DHT22;41095;53.090;6.692;2022-11-09T11:07:34;14.70;99.90
53752;DHT22;41095;53.090;6.692;2022-11-09T11:12:42;14.80;99.90
53752;DHT22;41095;53.090;6.692;2022-11-09T11:18:14;14.80;99.90
53752;DHT22;41095;53.090;6.692;2022-11-09T11:20:40;14.80;99.90
53752;DHT22;41095;53.090;6.692;2022-11-09T11:23:12;14.70;99.90
53752;DHT22;41095;53.090;6.692;2022-11-09T11:28:24;14.80;99.90
53752;DHT22;41095;53.090;6.692;2022-11-09T11:30:51;14.80;99.90
53752;DHT22;41095;53.090;6.692;2022-11-09T11:33:17;14.80;99.90
53752;DHT22;41095;53.090;6.692;2022-11-09T11:38:56;14.70;99.90
53752;DHT22;41095;53.090;6.692;2022-11-09T11:55:16;14.60;99.90
53752;DHT22;41095;53.090;6.692;2022-11-09T12:00:34;14.70;99.90
53752;DHT22;41095;53.090;6.692;2022-11-09T12:05:50;14.80;99.90
53752;DHT22;41095;53.090;6.692;2022-11-09T12:13:54;14.70;99.90
53752;DHT22;41095;53.090;6.692;2022-11-09T12:19:32;14.50;99.90
53752;DHT22;41095;53.090;6.692;2022-11-09T12:22:06;14.50;99.90
53752;DHT22;41095;53.090;6.692;2022-11-09T12:27:57;14.50;99.90
53752;DHT22;41095;53.090;6.692;2022-11-09T12:30:31;14.40;99.90
53752;DHT22;41095;53.090;6.692;2022-11-09T12:33:26;14.40;99.90
53752;DHT22;41095;53.090;6.692;2022-11-09T12:35:57;14.30;99.90
53752;DHT22;41095;53.090;6.692;2022-11-09T12:38:50;14.20;99.90
53752;DHT22;41095;53.090;6.692;2022-11-09T12:41:18;14.10;99.90
53752;DHT22;41095;53.090;6.692;2022-11-09T12:43:59;14.10;99.90
53752;DHT22;41095;53.090;6.692;2022-11-09T12:46:31;14.10;99.90
53752;DHT22;41095;53.090;6.692;2022-11-09T12:49:02;14.20;99.90
53752;DHT22;41095;53.090;6.692;2022-11-09T12:51:28;14.20;99.90
53752;DHT22;41095;53.090;6.692;2022-11-09T12:53:55;14.20;99.90
53752;DHT22;41095;53.090;6.692;2022-11-09T12:56:30;14.20;99.90
53752;DHT22;41095;53.090;6.692;2022-11-09T12:59:32;14.20;99.90
53752;DHT22;41095;53.090;6.692;2022-11-09T13:02:00;14.20;99.90
53752;DHT22;41095;53.090;6.692;2022-11-09T13:04:26;14.20;99.90
53752;DHT22;41095;53.090;6.692;2022-11-09T13:07:18;14.10;99.90
53752;DHT22;41095;53.090;6.692;2022-11-09T13:09:53;14.10;99.90
53752;DHT22;41095;53.090;6.692;2022-11-09T13:12:35;14.00;99.90
53752;DHT22;41095;53.090;6.692;2022-11-09T13:15:22;14.00;99.90
53752;DHT22;41095;53.090;6.692;2022-11-09T13:17:57;14.00;99.90
53752;DHT22;41095;53.090;6.692;2022-11-09T13:23:02;13.90;99.90
53752;DHT22;41095;53.090;6.692;2022-11-09T13:25:45;13.90;99.90
53752;DHT22;41095;53.090;6.692;2022-11-09T13:30:57;14.00;99.90
53752;DHT22;41095;53.090;6.692;2022-11-09T13:33:34;14.00;99.90
53752;DHT22;41095;53.090;6.692;2022-11-09T13:38:32;14.10;99.90
53752;DHT22;41095;53.090;6.692;2022-11-09T13:41:03;14.10;99.90
53752;DHT22;41095;53.090;6.692;2022-11-09T13:43:37;14.20;99.90
53752;DHT22;41095;53.090;6.692;2022-11-09T13:46:38;14.30;99.90
53752;DHT22;41095;53.090;6.692;2022-11-09T13:51:58;14.40;99.90
53752;DHT22;41095;53.090;6.692;2022-11-09T13:54:29;14.40;99.90
53752;DHT22;41095;53.090;6.692;2022-11-09T13:56:56;14.40;99.90
53752;DHT22;41095;53.090;6.692;2022-11-09T13:59:26;14.40;99.90
53752;DHT22;41095;53.090;6.692;2022-11-09T14:01:57;14.40;99.90
53752;DHT22;41095;53.090;6.692;2022-11-09T14:04:39;14.40;99.90
53752;DHT22;41095;53.090;6.692;2022-11-09T14:07:11;14.30;99.90
53752;DHT22;41095;53.090;6.692;2022-11-09T14:14:59;14.20;99.90
53752;DHT22;41095;53.090;6.692;2022-11-09T14:17:55;14.20;99.90
53752;DHT22;41095;53.090;6.692;2022-11-09T14:22:56;14.20;99.90
53752;DHT22;41095;53.090;6.692;2022-11-09T14:25:22;14.20;99.90
53752;DHT22;41095;53.090;6.692;2022-11-09T14:27:51;14.10;99.90
53752;DHT22;41095;53.090;6.692;2022-11-09T14:30:27;14.00;99.90
53752;DHT22;41095;53.090;6.692;2022-11-09T14:32:54;14.00;99.90
53752;DHT22;41095;53.090;6.692;2022-11-09T14:37:52;13.80;99.90
53752;DHT22;41095;53.090;6.692;2022-11-09T14:40:26;13.70;99.90
53752;DHT22;41095;53.090;6.692;2022-11-09T14:43:02;13.70;99.90
53752;DHT22;41095;53.090;6.692;2022-11-09T14:45:29;13.60;99.90
53752;DHT22;41095;53.090;6.692;2022-11-09T14:47:58;13.50;99.90
53752;DHT22;41095;53.090;6.692;2022-11-09T14:50:27;13.30;99.90
53752;DHT22;41095;53.090;6.692;2022-11-09T14:52:54;13.20;99.90
53752;DHT22;41095;53.090;6.692;2022-11-09T14:55:22;13.10;99.90
53752;DHT22;41095;53.090;6.692;2022-11-09T14:57:49;12.90;99.90
53752;DHT22;41095;53.090;6.692;2022-11-09T15:00:23;12.80;99.90
53752;DHT22;41095;53.090;6.692;2022-11-09T15:02:49;12.80;99.90
53752;DHT22;41095;53.090;6.692;2022-11-09T15:07:56;12.60;99.90
53752;DHT22;41095;53.090;6.692;2022-11-09T15:10:22;12.50;99.90
53752;DHT22;41095;53.090;6.692;2022-11-09T15:12:56;12.50;99.90
53752;DHT22;41095;53.090;6.692;2022-11-09T15:15:28;12.40;99.90
53752;DHT22;41095;53.090;6.692;2022-11-09T15:17:54;12.40;99.90
53752;DHT22;41095;53.090;6.692;2022-11-09T15:22:58;12.30;99.90
53752;DHT22;41095;53.090;6.692;2022-11-09T15:25:28;12.30;99.90
53752;DHT22;41095;53.090;6.692;2022-11-09T15:40:55;12.10;99.90
53752;DHT22;41095;53.090;6.692;2022-11-09T15:43:20;12.00;99.90
53752;DHT22;41095;53.090;6.692;2022-11-09T15:45:46;12.00;99.90
53752;DHT22;41095;53.090;6.692;2022-11-09T15:48:12;11.90;99.90
53752;DHT22;41095;53.090;6.692;2022-11-09T15:50:38;11.90;99.90
53752;DHT22;41095;53.090;6.692;2022-11-09T15:53:04;11.80;99.90
53752;DHT22;41095;53.090;6.692;2022-11-09T15:55:30;11.80;99.90
53752;DHT22;41095;53.090;6.692;2022-11-09T15:57:55;11.80;99.90
53752;DHT22;41095;53.090;6.692;2022-11-09T16:00:21;11.80;99.90
53752;DHT22;41095;53.090;6.692;2022-11-09T16:02:47;11.70;99.90
53752;DHT22;41095;53.090;6.692;2022-11-09T16:05:14;11.70;99.90
53752;DHT22;41095;53.090;6.692;2022-11-09T16:07:50;11.70;99.90
53752;DHT22;41095;53.090;6.692;2022-11-09T16:10:17;11.70;99.90
53752;DHT22;41095;53.090;6.692;2022-11-09T16:12:49;11.70;99.90
53752;DHT22;41095;53.090;6.692;2022-11-09T16:15:18;11.70;99.90
53752;DHT22;41095;53.090;6.692;2022-11-09T16:17:44;11.70;99.90
53752;DHT22;41095;53.090;6.692;2022-11-09T16:20:10;11.60;99.90
53752;DHT22;41095;53.090;6.692;2022-11-09T16:22:36;11.60;99.90
53752;DHT22;41095;53.090;6.692;2022-11-09T16:25:02;11.60;99.90
53752;DHT22;41095;53.090;6.692;2022-11-09T16:27:27;11.60;99.90
53752;DHT22;41095;53.090;6.692;2022-11-09T16:29:54;11.60;99.90
53752;DHT22;41095;53.090;6.692;2022-11-09T16:32:19;11.70;99.90
53752;DHT22;41095;53.090;6.692;2022-11-09T16:34:45;11.70;99.90
53752;DHT22;41095;53.090;6.692;2022-11-09T16:37:11;11.70;99.90
53752;DHT22;41095;53.090;6.692;2022-11-09T16:39:37;11.70;99.90
53752;DHT22;41095;53.090;6.692;2022-11-09T16:42:08;11.80;99.90
53752;DHT22;41095;53.090;6.692;2022-11-09T16:44:36;11.80;99.90
53752;DHT22;41095;53.090;6.692;2022-11-09T16:47:05;11.80;99.90
53752;DHT22;41095;53.090;6.692;2022-11-09T16:49:32;11.80;99.90
53752;DHT22;41095;53.090;6.692;2022-11-09T16:51:57;11.80;99.90
53752;DHT22;41095;53.090;6.692;2022-11-09T16:54:23;11.80;99.90
53752;DHT22;41095;53.090;6.692;2022-11-09T16:56:49;11.70;99.90
53752;DHT22;41095;53.090;6.692;2022-11-09T16:59:17;11.70;99.90
53752;DHT22;41095;53.090;6.692;2022-11-09T17:01:56;11.60;99.90
53752;DHT22;41095;53.090;6.692;2022-11-09T17:04:22;11.60;99.90
53752;DHT22;41095;53.090;6.692;2022-11-09T17:06:49;11.60;99.90
53752;DHT22;41095;53.090;6.692;2022-11-09T17:09:16;11.70;99.90
53752;DHT22;41095;53.090;6.692;2022-11-09T17:11:42;11.70;99.90
53752;DHT22;41095;53.090;6.692;2022-11-09T17:14:07;11.70;99.90
53752;DHT22;41095;53.090;6.692;2022-11-09T17:16:33;11.80;99.90
53752;DHT22;41095;53.090;6.692;2022-11-09T17:18:59;11.70;99.90
53752;DHT22;41095;53.090;6.692;2022-11-09T17:21:26;11.80;99.90